Time;durP1;ratioP1;P1;durP2;ratioP2;P2;SDS_P1;SDS_P2;PMS_P1;PMS_P2;Temp;Humidity;BMP_temperature;BMP_pressure;BME280_temperature;BME280_humidity;BME280_pressure;Samples;Min_cycle;Max_cycle;Signal;HPM_P1;HPM_P2
2022/04/19 00:01:12;;;;;;;8.17;5.97;;;9.80;71.10;;;;;;6125084;23;20397;-85
2022/04/19 00:03:40;;;;;;;8.70;5.80;;;9.80;71.40;;;;;;6102406;23;20407;-84
2022/04/19 00:06:07;;;;;;;9.73;5.67;;;9.70;71.80;;;;;;6100257;23;20435;-85
2022/04/19 00:08:35;;;;;;;9.00;5.57;;;9.60;72.60;;;;;;6117314;23;20907;-85
2022/04/19 00:11:03;;;;;;;10.00;6.20;;;9.60;73.10;;;;;;6119368;23;20416;-86
2022/04/19 00:13:31;;;;;;;8.97;6.30;;;9.60;73.30;;;;;;6113925;23;20409;-86
2022/04/19 00:15:58;;;;;;;7.93;5.47;;;9.70;73.10;;;;;;6118919;23;20451;-87
2022/04/19 00:18:25;;;;;;;7.90;6.47;;;9.70;73.20;;;;;;6114348;23;20951;-86
2022/04/19 00:20:54;;;;;;;14.13;6.20;;;9.60;72.90;;;;;;6107134;23;20419;-85
2022/04/19 00:23:21;;;;;;;9.73;6.20;;;9.60;73.30;;;;;;6102065;23;20409;-86
2022/04/19 00:25:50;;;;;;;8.50;6.63;;;9.60;73.10;;;;;;6099381;23;20406;-85
2022/04/19 00:28:17;;;;;;;10.40;7.00;;;9.60;73.10;;;;;;6108105;23;20449;-85
2022/04/19 00:30:46;;;;;;;7.73;6.23;;;9.50;73.00;;;;;;6099166;23;20411;-86
2022/04/19 00:33:12;;;;;;;9.63;6.00;;;9.50;73.00;;;;;;6098235;23;20419;-86
2022/04/19 00:35:39;;;;;;;8.87;5.70;;;9.50;73.30;;;;;;6099214;23;20443;-86
2022/04/19 00:38:07;;;;;;;8.83;5.70;;;9.40;73.50;;;;;;6105296;23;20409;-84
2022/04/19 00:40:34;;;;;;;6.43;5.80;;;9.30;73.60;;;;;;6111281;23;20436;-84
2022/04/19 00:43:02;;;;;;;9.17;6.07;;;9.20;74.00;;;;;;6125090;23;20411;-85
2022/04/19 00:45:31;;;;;;;6.80;5.57;;;9.10;74.80;;;;;;6123682;23;20400;-87
2022/04/19 00:47:58;;;;;;;9.80;6.07;;;8.90;75.30;;;;;;6123577;23;20435;-85
2022/04/19 00:50:25;;;;;;;8.53;5.43;;;8.90;76.30;;;;;;6102538;23;20437;-86
2022/04/19 00:52:52;;;;;;;6.07;5.30;;;9.00;76.30;;;;;;6097894;23;20416;-87
2022/04/19 00:55:21;;;;;;;7.23;5.50;;;9.00;76.00;;;;;;6098058;23;20440;-86
2022/04/19 00:57:48;;;;;;;6.67;5.50;;;9.00;76.10;;;;;;6098112;23;20424;-87
2022/04/19 01:00:16;;;;;;;6.63;5.87;;;8.90;76.20;;;;;;6098204;23;20431;-86
2022/04/19 01:02:43;;;;;;;5.80;5.20;;;8.90;76.50;;;;;;6106655;23;20403;-85
2022/04/19 01:05:10;;;;;;;9.30;6.33;;;8.90;76.40;;;;;;6124072;23;20468;-85
2022/04/19 01:07:38;;;;;;;7.10;5.53;;;8.90;76.70;;;;;;6121284;23;20408;-86
2022/04/19 01:10:06;;;;;;;7.90;6.60;;;8.80;76.60;;;;;;6104805;23;20470;-86
2022/04/19 01:15:19;;;;;;;6.50;5.83;;;8.80;76.40;;;;;;6098910;23;20423;-86
2022/04/19 01:17:46;;;;;;;10.17;5.77;;;8.90;76.30;;;;;;6098419;23;20413;-86
2022/04/19 01:20:13;;;;;;;6.77;6.10;;;8.80;76.30;;;;;;6098669;23;20492;-86
2022/04/19 01:22:43;;;;;;;6.70;5.60;;;8.80;76.50;;;;;;6097771;23;20409;-87
2022/04/19 01:25:11;;;;;;;6.80;5.73;;;8.80;76.70;;;;;;6097902;23;20464;-85
2022/04/19 01:27:39;;;;;;;9.47;5.97;;;8.70;77.10;;;;;;6098241;23;20754;-86
2022/04/19 01:30:09;;;;;;;6.60;6.00;;;8.70;77.20;;;;;;6111966;23;20401;-86
2022/04/19 01:32:36;;;;;;;11.73;6.43;;;8.70;77.50;;;;;;6118366;23;20400;-86
2022/04/19 01:35:10;;;;;;;9.50;5.90;;;8.80;77.80;;;;;;6103691;23;20475;-87
2022/04/19 01:37:38;;;;;;;9.87;6.03;;;8.70;78.00;;;;;;6101285;23;20397;-86
2022/04/19 01:40:20;;;;;;;6.90;5.63;;;8.60;78.20;;;;;;6098350;23;20536;-87
2022/04/19 01:42:48;;;;;;;8.80;6.13;;;8.50;78.60;;;;;;6098101;23;20390;-87
2022/04/19 01:45:16;;;;;;;9.20;7.20;;;8.50;79.00;;;;;;6102854;23;20437;-86
2022/04/19 01:47:43;;;;;;;7.00;6.30;;;8.50;79.30;;;;;;6119276;23;20902;-86
2022/04/19 01:50:12;;;;;;;7.17;5.90;;;8.50;79.60;;;;;;6121292;23;20436;-86
2022/04/19 01:52:39;;;;;;;7.53;5.50;;;8.40;80.00;;;;;;6099472;23;21009;-86
2022/04/19 01:55:10;;;;;;;6.03;4.77;;;8.40;80.50;;;;;;6100848;23;20444;-87
2022/04/19 01:57:37;;;;;;;7.73;5.87;;;8.30;80.30;;;;;;6117767;23;20381;-86
2022/04/19 02:00:05;;;;;;;7.20;5.63;;;8.30;80.80;;;;;;6116631;23;20436;-87
2022/04/19 02:02:32;;;;;;;7.60;5.90;;;8.20;81.80;;;;;;6109365;23;20427;-87
2022/04/19 02:04:59;;;;;;;6.33;5.67;;;8.20;82.50;;;;;;6117456;23;20408;-87
2022/04/19 02:07:25;;;;;;;9.30;6.77;;;8.20;82.50;;;;;;6101003;23;20460;-87
2022/04/19 02:09:52;;;;;;;11.27;6.60;;;8.20;82.80;;;;;;6099224;23;20439;-87
2022/04/19 02:12:20;;;;;;;15.00;7.13;;;8.20;83.40;;;;;;6098785;23;20412;-87
2022/04/19 02:14:47;;;;;;;7.87;5.10;;;8.20;82.60;;;;;;6118564;23;20392;-84
2022/04/19 02:17:14;;;;;;;7.00;6.40;;;8.20;82.60;;;;;;6123909;23;20440;-86
2022/04/19 02:19:40;;;;;;;7.37;6.67;;;8.20;82.90;;;;;;6114043;23;20480;-86
2022/04/19 02:22:09;;;;;;;7.53;5.63;;;8.20;83.00;;;;;;6119365;23;20405;-86
2022/04/19 02:24:36;;;;;;;8.27;6.53;;;8.20;82.60;;;;;;6120902;23;20444;-86
2022/04/19 02:27:05;;;;;;;9.30;7.13;;;8.20;83.10;;;;;;6114583;23;20409;-87
2022/04/19 02:29:33;;;;;;;8.40;6.53;;;8.10;83.20;;;;;;6097051;23;20437;-87
2022/04/19 02:32:00;;;;;;;7.83;7.13;;;8.00;84.10;;;;;;6096680;23;20789;-87
2022/04/19 02:34:26;;;;;;;7.53;6.73;;;8.10;84.10;;;;;;6097432;23;20409;-87
2022/04/19 02:36:53;;;;;;;9.70;7.20;;;8.10;83.50;;;;;;6120390;23;20456;-86
2022/04/19 02:39:20;;;;;;;11.67;8.20;;;8.00;83.90;;;;;;6114730;23;20428;-87
2022/04/19 02:41:47;;;;;;;11.53;7.50;;;8.00;85.10;;;;;;6112695;23;20534;-86
2022/04/19 02:44:14;;;;;;;10.33;6.40;;;7.90;85.30;;;;;;6121379;23;20432;-86
2022/04/19 02:46:42;;;;;;;11.23;6.70;;;8.00;85.20;;;;;;6097503;23;20472;-86
2022/04/19 02:49:09;;;;;;;9.00;6.87;;;7.90;85.10;;;;;;6096815;23;20437;-85
2022/04/19 02:51:36;;;;;;;9.30;6.70;;;7.90;85.30;;;;;;6096298;23;20417;-86
2022/04/19 02:54:02;;;;;;;10.27;7.07;;;7.80;85.00;;;;;;6097480;23;20412;-86
2022/04/19 02:56:29;;;;;;;8.57;6.47;;;7.80;86.00;;;;;;6118324;23;20416;-85
2022/04/19 02:58:56;;;;;;;7.80;6.47;;;7.70;86.70;;;;;;6116473;23;20448;-86
2022/04/19 03:01:24;;;;;;;9.73;6.93;;;7.60;87.30;;;;;;6103353;23;20409;-86
2022/04/19 03:03:52;;;;;;;11.07;7.23;;;7.60;87.50;;;;;;6112959;23;20409;-86
2022/04/19 03:06:19;;;;;;;7.90;6.83;;;7.60;87.30;;;;;;6099013;23;20404;-86
2022/04/19 03:08:46;;;;;;;8.80;6.60;;;7.60;87.40;;;;;;6099935;23;20425;-87
2022/04/19 03:11:12;;;;;;;11.83;7.87;;;7.50;87.60;;;;;;6102542;23;20911;-87
2022/04/19 03:13:39;;;;;;;8.50;7.17;;;7.40;87.90;;;;;;6101811;23;20408;-87
2022/04/19 03:16:06;;;;;;;8.37;7.53;;;7.40;88.40;;;;;;6098932;23;20440;-87
2022/04/19 03:18:33;;;;;;;8.70;7.43;;;7.50;89.10;;;;;;6098756;23;20428;-86
2022/04/19 03:21:01;;;;;;;8.77;7.00;;;7.40;88.80;;;;;;6098558;23;20415;-87
2022/04/19 03:28:59;;;;;;;9.83;6.80;;;7.30;89.70;;;;;;6072213;23;20422;-88
2022/04/19 03:31:25;;;;;;;11.07;7.50;;;7.30;89.60;;;;;;6118325;23;20408;-86
2022/04/19 03:33:52;;;;;;;9.07;7.37;;;7.30;89.20;;;;;;6112589;23;20398;-87
2022/04/19 03:36:21;;;;;;;10.63;7.60;;;7.20;89.60;;;;;;6126321;23;20496;-87
2022/04/19 03:38:47;;;;;;;8.03;6.20;;;7.10;90.40;;;;;;6126479;23;20448;-87
2022/04/19 03:41:14;;;;;;;8.70;7.43;;;7.10;90.60;;;;;;6125585;23;20590;-85
2022/04/19 03:43:41;;;;;;;8.37;7.57;;;7.10;90.70;;;;;;6120331;23;20473;-87
2022/04/19 03:46:09;;;;;;;10.77;7.60;;;7.10;90.80;;;;;;6125446;23;20476;-85
2022/04/19 03:48:38;;;;;;;9.23;6.80;;;7.10;90.70;;;;;;6124866;23;20431;-87
2022/04/19 03:51:05;;;;;;;9.60;6.47;;;7.10;90.80;;;;;;6125997;23;20436;-87
2022/04/19 03:53:33;;;;;;;10.70;6.30;;;7.00;91.10;;;;;;6125736;23;20426;-89
2022/04/19 03:56:00;;;;;;;11.23;7.17;;;6.90;91.40;;;;;;6125477;23;20453;-89
2022/04/19 03:58:27;;;;;;;9.73;7.33;;;6.90;91.70;;;;;;6124927;23;20388;-89
2022/04/19 04:00:55;;;;;;;9.03;7.30;;;6.90;91.70;;;;;;6110372;23;20475;-87
2022/04/19 04:03:23;;;;;;;7.60;6.90;;;6.80;91.80;;;;;;6100763;23;20411;-88
2022/04/19 04:05:49;;;;;;;7.57;6.20;;;6.80;91.90;;;;;;6100238;23;20409;-88
2022/04/19 04:08:17;;;;;;;6.40;5.80;;;6.80;91.80;;;;;;6110732;23;20412;-88
2022/04/19 04:10:45;;;;;;;10.33;6.63;;;6.80;91.80;;;;;;6120631;23;20417;-88
2022/04/19 04:13:12;;;;;;;7.87;7.07;;;6.80;91.70;;;;;;6112803;23;20407;-88
2022/04/19 04:15:38;;;;;;;7.97;5.90;;;6.70;91.80;;;;;;6106348;23;20396;-88
2022/04/19 04:18:05;;;;;;;7.37;6.57;;;6.80;91.90;;;;;;6102266;23;20407;-89
2022/04/19 04:20:32;;;;;;;7.40;6.63;;;6.70;92.00;;;;;;6102291;23;20444;-88
2022/04/19 04:22:59;;;;;;;10.60;7.10;;;6.80;92.10;;;;;;6098547;23;20402;-88
2022/04/19 04:25:26;;;;;;;13.60;7.33;;;6.80;92.00;;;;;;6100063;23;20472;-87
2022/04/19 04:27:54;;;;;;;9.60;6.47;;;6.90;91.90;;;;;;6106103;23;20407;-89
2022/04/19 04:30:21;;;;;;;20.50;7.30;;;6.80;91.70;;;;;;6124166;23;20426;-88
2022/04/19 04:32:48;;;;;;;9.37;6.67;;;6.80;92.10;;;;;;6124952;23;20399;-88
2022/04/19 04:35:15;;;;;;;13.63;7.40;;;6.80;92.30;;;;;;6124802;23;20480;-88
2022/04/19 04:37:41;;;;;;;11.53;7.70;;;6.80;92.30;;;;;;6119431;23;20502;-87
2022/04/19 04:40:31;;;;;;;8.87;6.47;;;6.90;92.00;;;;;;6123864;23;20426;-89
2022/04/19 04:42:59;;;;;;;11.63;7.63;;;7.00;91.80;;;;;;6120841;23;20419;-87
2022/04/19 04:45:26;;;;;;;11.43;6.93;;;6.90;91.60;;;;;;6117990;23;20418;-87
2022/04/19 04:50:37;;;;;;;8.67;6.83;;;6.90;91.30;;;;;;6111956;23;20434;-87
2022/04/19 04:53:04;;;;;;;13.93;6.10;;;6.90;91.50;;;;;;6120270;23;20396;-86
2022/04/19 04:55:31;;;;;;;6.83;6.10;;;6.90;91.30;;;;;;6120768;23;20519;-86
2022/04/19 04:58:01;;;;;;;8.53;6.63;;;6.90;91.40;;;;;;6151607;23;20465;-85
2022/04/19 05:00:28;;;;;;;8.43;5.80;;;6.90;91.50;;;;;;6149324;23;20415;-83
2022/04/19 05:02:55;;;;;;;8.67;6.40;;;6.80;91.40;;;;;;6135264;23;20398;-83
2022/04/19 05:05:22;;;;;;;8.77;6.07;;;6.90;91.50;;;;;;6123294;23;20432;-83
2022/04/19 05:07:49;;;;;;;6.73;5.77;;;6.90;91.60;;;;;;6105123;23;20437;-83
2022/04/19 05:10:15;;;;;;;8.60;6.60;;;6.90;91.60;;;;;;6102345;23;20438;-83
2022/04/19 05:12:42;;;;;;;10.83;6.60;;;7.10;91.60;;;;;;6104297;23;20404;-81
2022/04/19 05:15:11;;;;;;;8.40;7.50;;;7.40;90.80;;;;;;6106008;23;20917;-83
2022/04/19 05:17:38;;;;;;;8.10;6.30;;;7.60;90.30;;;;;;6101540;23;20471;-83
2022/04/19 05:20:06;;;;;;;11.30;7.40;;;7.70;89.50;;;;;;6100946;23;20906;-82
2022/04/19 05:22:33;;;;;;;7.67;6.80;;;7.70;89.00;;;;;;6101207;23;20408;-83
2022/04/19 05:25:00;;;;;;;11.87;6.50;;;7.80;88.60;;;;;;6101507;23;20896;-84
2022/04/19 05:27:26;;;;;;;11.37;6.93;;;7.90;88.30;;;;;;6102175;23;20486;-83
2022/04/19 05:29:53;;;;;;;12.93;7.10;;;8.10;87.40;;;;;;6103110;23;20413;-83
2022/04/19 05:32:21;;;;;;;11.70;7.20;;;8.00;86.40;;;;;;6102516;23;20424;-82
2022/04/19 05:34:49;;;;;;;9.10;6.50;;;8.00;86.20;;;;;;6100709;23;20405;-83
2022/04/19 05:37:16;;;;;;;10.30;7.07;;;7.90;86.70;;;;;;6099354;23;20433;-83
2022/04/19 05:39:42;;;;;;;7.73;6.60;;;7.90;87.20;;;;;;6099637;23;20404;-83
2022/04/19 05:42:09;;;;;;;8.77;7.37;;;7.80;86.90;;;;;;6101174;23;20412;-83
2022/04/19 05:44:37;;;;;;;10.60;7.13;;;7.80;87.00;;;;;;6112113;23;20785;-82
2022/04/19 05:47:04;;;;;;;8.77;7.20;;;7.90;86.70;;;;;;6107771;23;20421;-82
2022/04/19 05:49:32;;;;;;;10.77;8.03;;;7.90;86.40;;;;;;6103742;23;20491;-84
2022/04/19 05:51:59;;;;;;;9.10;7.50;;;8.10;86.80;;;;;;6101379;23;20412;-83
2022/04/19 05:54:26;;;;;;;7.87;7.07;;;8.30;85.60;;;;;;6102160;23;20414;-83
2022/04/19 05:56:52;;;;;;;8.47;6.70;;;8.40;84.70;;;;;;6098443;23;20448;-85
2022/04/19 05:59:19;;;;;;;8.87;6.70;;;8.60;84.70;;;;;;6098853;23;20404;-83
2022/04/19 06:07:15;;;;;;;10.77;6.63;;;9.40;79.60;;;;;;6100422;23;20443;-83
2022/04/19 06:09:42;;;;;;;9.00;6.63;;;9.40;78.70;;;;;;6100323;23;20777;-84
2022/04/19 06:12:09;;;;;;;12.13;7.00;;;9.60;78.40;;;;;;6101494;23;20861;-82
2022/04/19 06:14:36;;;;;;;8.07;7.23;;;10.20;76.30;;;;;;6111240;23;20412;-82
2022/04/19 06:17:03;;;;;;;9.33;7.77;;;11.00;74.30;;;;;;6105961;23;20429;-84
2022/04/19 06:19:30;;;;;;;10.30;7.47;;;11.80;69.90;;;;;;6099631;23;20412;-84
2022/04/19 06:21:58;;;;;;;8.53;6.87;;;12.30;66.90;;;;;;6099268;23;20413;-84
2022/04/19 06:24:25;;;;;;;10.90;6.53;;;13.00;64.50;;;;;;6099562;23;20472;-83
2022/04/19 06:26:52;;;;;;;11.03;7.10;;;13.40;61.80;;;;;;6099860;23;20450;-83
2022/04/19 06:29:19;;;;;;;9.10;6.37;;;13.80;60.80;;;;;;6099414;23;20417;-84
2022/04/19 06:31:45;;;;;;;10.00;6.90;;;14.10;58.40;;;;;;6101106;23;20418;-83
2022/04/19 06:34:12;;;;;;;9.17;6.70;;;14.20;58.60;;;;;;6100447;23;20411;-83
2022/04/19 06:36:39;;;;;;;10.80;7.30;;;14.50;57.00;;;;;;6099675;23;20447;-85
2022/04/19 06:39:07;;;;;;;9.90;6.50;;;14.60;56.90;;;;;;6097753;23;20415;-84
2022/04/19 06:41:34;;;;;;;8.43;6.70;;;15.50;56.40;;;;;;6100908;23;20412;-84
2022/04/19 06:44:01;;;;;;;7.47;6.73;;;15.50;54.80;;;;;;6099250;23;20455;-84
2022/04/19 06:46:28;;;;;;;8.20;5.67;;;15.70;54.30;;;;;;6099571;23;20428;-83
2022/04/19 06:48:55;;;;;;;7.93;6.50;;;15.90;54.60;;;;;;6104730;23;20416;-82
2022/04/19 06:51:22;;;;;;;7.50;6.70;;;16.20;53.40;;;;;;6099301;23;20409;-84
2022/04/19 06:53:49;;;;;;;7.37;6.60;;;16.70;52.60;;;;;;6101322;23;20413;-83
2022/04/19 06:56:18;;;;;;;8.63;6.47;;;16.90;51.30;;;;;;6099539;23;20795;-83
2022/04/19 06:58:45;;;;;;;7.50;6.17;;;16.40;51.10;;;;;;6100949;23;20415;-83
2022/04/19 07:01:12;;;;;;;8.23;6.47;;;16.30;52.00;;;;;;6099953;23;20402;-83
2022/04/19 07:03:39;;;;;;;6.33;5.80;;;16.20;52.00;;;;;;6100286;23;20479;-82
2022/04/19 07:06:06;;;;;;;7.97;6.50;;;16.30;52.50;;;;;;6102347;23;20432;-84
2022/04/19 07:08:34;;;;;;;6.87;6.27;;;16.40;52.30;;;;;;6076591;23;20565;-83
2022/04/19 07:11:01;;;;;;;7.37;6.60;;;17.70;51.30;;;;;;6101793;23;20459;-84
2022/04/19 07:13:29;;;;;;;8.83;6.43;;;18.50;49.30;;;;;;6099763;23;20401;-83
2022/04/19 07:15:55;;;;;;;7.57;5.60;;;19.00;48.40;;;;;;6101930;23;20425;-82
2022/04/19 07:18:23;;;;;;;5.73;5.33;;;19.30;47.20;;;;;;6122067;23;20420;-85
2022/04/19 07:29:03;;;;;;;9.57;6.77;;;20.40;44.20;;;;;;6101171;23;20547;-84
2022/04/19 07:31:29;;;;;;;6.23;5.63;;;19.60;45.20;;;;;;6099545;23;20410;-84
2022/04/19 07:33:56;;;;;;;6.23;5.63;;;20.20;45.60;;;;;;6100933;23;20469;-83
2022/04/19 07:36:23;;;;;;;6.93;5.87;;;20.30;44.60;;;;;;6100569;23;20420;-84
2022/04/19 07:38:49;;;;;;;6.90;6.30;;;21.30;43.90;;;;;;6100370;23;20404;-84
2022/04/19 07:41:17;;;;;;;15.10;6.40;;;21.60;42.70;;;;;;6100744;23;20408;-84
2022/04/19 07:43:45;;;;;;;7.27;5.50;;;21.70;42.10;;;;;;6101277;23;20428;-83
2022/04/19 07:46:15;;;;;;;7.23;6.27;;;21.90;41.70;;;;;;6099510;23;20463;-84
2022/04/19 07:48:42;;;;;;;6.07;5.50;;;22.40;41.60;;;;;;6104191;23;20758;-83
2022/04/19 07:51:08;;;;;;;6.57;5.93;;;22.10;41.60;;;;;;6124246;23;20459;-85
2022/04/19 07:53:35;;;;;;;9.10;6.00;;;21.50;42.40;;;;;;6124298;23;20413;-85
2022/04/19 07:56:02;;;;;;;8.03;6.30;;;21.80;42.20;;;;;;6107066;23;20440;-83
2022/04/19 07:58:29;;;;;;;7.03;6.10;;;21.20;42.40;;;;;;6110109;23;20399;-83
2022/04/19 08:00:56;;;;;;;8.23;6.27;;;20.60;43.00;;;;;;6118370;23;20410;-83
2022/04/19 08:03:24;;;;;;;11.27;5.97;;;20.70;43.60;;;;;;6118604;23;20404;-83
2022/04/19 08:05:51;;;;;;;7.30;5.80;;;20.90;44.00;;;;;;6109108;23;20930;-82
2022/04/19 08:08:18;;;;;;;7.70;6.90;;;20.50;43.80;;;;;;6108772;23;20442;-84
2022/04/19 08:10:45;;;;;;;7.00;6.30;;;20.40;43.70;;;;;;6104746;23;20444;-83
2022/04/19 08:13:12;;;;;;;10.87;6.30;;;20.40;43.80;;;;;;6104926;23;20421;-82
2022/04/19 08:15:39;;;;;;;12.70;7.10;;;20.10;44.10;;;;;;6101736;23;20439;-83
2022/04/19 08:18:06;;;;;;;7.97;6.30;;;20.50;44.20;;;;;;6101966;23;20410;-84
2022/04/19 08:20:34;;;;;;;6.87;5.70;;;21.50;43.70;;;;;;6102051;23;20409;-82
2022/04/19 08:23:00;;;;;;;7.20;6.50;;;23.10;41.10;;;;;;6111558;23;20391;-81
2022/04/19 08:25:27;;;;;;;6.90;6.27;;;24.50;39.10;;;;;;6123142;23;20463;-82
2022/04/19 08:27:54;;;;;;;8.13;6.97;;;25.30;37.50;;;;;;6123435;23;20483;-82
2022/04/19 08:30:21;;;;;;;7.67;6.87;;;25.80;36.50;;;;;;6116492;23;20408;-84
2022/04/19 08:32:51;;;;;;;8.43;7.67;;;26.90;35.00;;;;;;6110284;23;20413;-83
2022/04/19 08:35:18;;;;;;;7.27;6.27;;;27.50;33.60;;;;;;6104648;23;20445;-84
2022/04/19 08:37:50;;;;;;;8.17;6.70;;;28.70;32.50;;;;;;6102050;23;20483;-83
2022/04/19 08:40:18;;;;;;;7.00;6.30;;;29.00;31.50;;;;;;6102332;23;20429;-84
2022/04/19 08:42:45;;;;;;;6.90;6.20;;;29.70;30.80;;;;;;6102326;23;20404;-84
2022/04/19 08:45:14;;;;;;;7.87;6.73;;;30.40;30.00;;;;;;6105162;23;20423;-83
2022/04/19 08:47:43;;;;;;;7.60;6.97;;;30.30;29.50;;;;;;6104379;23;20517;-83
2022/04/19 08:50:13;;;;;;;8.57;6.07;;;30.30;29.00;;;;;;6107893;23;20409;-84
2022/04/19 08:52:40;;;;;;;7.30;6.60;;;30.10;28.90;;;;;;6103456;23;20400;-83
2022/04/19 08:57:55;;;;;;;8.47;7.67;;;30.80;28.20;;;;;;6109584;23;20395;-85
2022/04/19 09:00:23;;;;;;;6.17;5.63;;;31.30;28.10;;;;;;6108612;23;20409;-83
2022/04/19 09:02:51;;;;;;;6.30;5.73;;;31.60;27.20;;;;;;6103100;23;20452;-83
2022/04/19 09:05:20;;;;;;;5.10;4.63;;;32.00;26.10;;;;;;6102205;23;20995;-84
2022/04/19 09:07:48;;;;;;;5.33;4.93;;;32.30;25.40;;;;;;6104015;23;20444;-84
2022/04/19 09:10:25;;;;;;;5.20;4.70;;;32.40;25.10;;;;;;6110567;23;20483;-84
2022/04/19 09:13:04;;;;;;;5.53;5.13;;;32.40;25.50;;;;;;6108218;23;20389;-83
2022/04/19 09:15:35;;;;;;;4.77;4.37;;;32.20;25.90;;;;;;6105055;23;20432;-85
2022/04/19 09:18:02;;;;;;;7.73;4.73;;;32.70;25.80;;;;;;6104168;23;20756;-83
2022/04/19 09:20:31;;;;;;;5.20;4.70;;;33.50;24.70;;;;;;6104007;23;20408;-85
2022/04/19 09:23:04;;;;;;;4.60;4.20;;;33.30;24.10;;;;;;6104415;23;20409;-83
2022/04/19 09:25:33;;;;;;;5.00;4.07;;;33.40;23.80;;;;;;6104648;23;20429;-83
2022/04/19 09:28:01;;;;;;;5.63;5.13;;;33.60;24.50;;;;;;6103993;23;20970;-85
2022/04/19 09:30:29;;;;;;;5.27;4.70;;;33.40;24.30;;;;;;6104544;23;20915;-84
2022/04/19 09:33:09;;;;;;;4.97;4.50;;;33.00;24.20;;;;;;6104400;23;20400;-84
2022/04/19 09:35:37;;;;;;;6.73;4.27;;;31.60;24.30;;;;;;6106703;23;20432;-83
2022/04/19 09:38:06;;;;;;;4.27;3.87;;;29.90;25.60;;;;;;6114003;23;20444;-84
2022/04/19 09:40:36;;;;;;;5.00;3.90;;;30.60;25.50;;;;;;6107634;23;20748;-83
2022/04/19 09:43:11;;;;;;;7.03;4.90;;;30.80;25.60;;;;;;6104921;23;20415;-83
2022/04/19 09:45:54;;;;;;;4.50;4.10;;;30.90;25.70;;;;;;6104925;23;20439;-83
2022/04/19 09:48:22;;;;;;;5.20;4.63;;;31.00;25.50;;;;;;6114573;23;20499;-83
2022/04/19 09:51:02;;;;;;;4.50;4.07;;;30.70;25.70;;;;;;6101094;23;20415;-84
2022/04/19 09:53:30;;;;;;;5.50;5.00;;;31.60;25.70;;;;;;6100070;23;20393;-85
2022/04/19 09:55:59;;;;;;;5.00;4.60;;;31.40;25.30;;;;;;6101936;23;20441;-83
2022/04/19 09:58:27;;;;;;;4.90;4.50;;;32.10;25.80;;;;;;6101918;23;20420;-85
2022/04/19 10:00:54;;;;;;;4.50;4.10;;;32.40;25.40;;;;;;6102533;23;20408;-85
2022/04/19 10:09:06;;;;;;;5.40;4.90;;;32.70;24.40;;;;;;6109635;23;20439;-84
2022/04/19 10:11:34;;;;;;;4.70;4.30;;;32.20;24.60;;;;;;6101579;23;20421;-85
2022/04/19 10:14:00;;;;;;;5.20;4.70;;;33.60;23.90;;;;;;6103042;23;20713;-84
2022/04/19 10:16:30;;;;;;;4.60;4.20;;;32.90;23.60;;;;;;6106077;23;20429;-84
2022/04/19 10:18:56;;;;;;;4.90;4.40;;;33.20;23.70;;;;;;6105059;23;20400;-84
2022/04/19 10:21:27;;;;;;;5.27;4.40;;;33.50;23.40;;;;;;6103466;23;20421;-85
2022/04/19 10:24:09;;;;;;;6.90;4.77;;;33.50;22.80;;;;;;6105470;23;20399;-84
2022/04/19 10:26:41;;;;;;;4.77;4.20;;;34.60;22.50;;;;;;6105707;23;20436;-84
2022/04/19 10:29:17;;;;;;;6.13;3.90;;;34.30;21.90;;;;;;6105276;23;20420;-85
2022/04/19 10:31:55;;;;;;;5.60;5.00;;;34.10;22.70;;;;;;6103301;23;20735;-84
2022/04/19 10:34:25;;;;;;;5.03;4.63;;;34.10;22.20;;;;;;6108778;23;20400;-85
2022/04/19 10:36:54;;;;;;;5.63;5.20;;;32.50;22.40;;;;;;6108957;23;20432;-84
2022/04/19 10:39:23;;;;;;;5.50;4.97;;;32.30;23.00;;;;;;6104924;23;20452;-84
2022/04/19 10:41:54;;;;;;;4.73;4.33;;;31.70;22.90;;;;;;6103503;23;20468;-83
2022/04/19 10:44:32;;;;;;;5.67;5.17;;;31.40;23.70;;;;;;6112645;23;20463;-84
2022/04/19 10:47:12;;;;;;;5.17;4.73;;;31.50;23.50;;;;;;6111852;23;20430;-85
2022/04/19 10:49:59;;;;;;;6.00;5.50;;;30.20;24.30;;;;;;6105274;23;20994;-83
2022/04/19 10:52:45;;;;;;;5.10;4.70;;;30.50;23.90;;;;;;6106556;23;20404;-83
2022/04/19 10:55:18;;;;;;;5.40;4.90;;;29.60;24.20;;;;;;6120287;23;20504;-85
2022/04/19 10:58:08;;;;;;;5.63;4.37;;;30.30;24.60;;;;;;6120637;23;20437;-84
2022/04/19 11:00:38;;;;;;;6.10;5.50;;;31.50;24.10;;;;;;6104244;23;20407;-85
2022/04/19 11:03:06;;;;;;;6.30;5.73;;;31.80;24.10;;;;;;6105177;23;20411;-85
2022/04/19 11:05:52;;;;;;;6.13;4.80;;;33.10;23.50;;;;;;6104307;23;20436;-85
2022/04/19 11:08:31;;;;;;;5.53;5.13;;;33.20;23.10;;;;;;6104714;23;20432;-84
2022/04/19 11:11:22;;;;;;;5.57;5.00;;;33.70;23.10;;;;;;6105711;23;20388;-85
2022/04/19 11:14:22;;;;;;;5.70;5.20;;;34.20;22.20;;;;;;6102723;23;20731;-84
2022/04/19 11:16:51;;;;;;;6.67;6.00;;;34.10;22.70;;;;;;6101636;23;20424;-84
2022/04/19 11:19:24;;;;;;;6.10;5.50;;;33.60;22.70;;;;;;6100754;23;20505;-84
2022/04/19 11:21:58;;;;;;;5.27;4.87;;;33.70;22.50;;;;;;6101405;23;20404;-84
2022/04/19 11:25:00;;;;;;;5.20;4.80;;;34.20;22.50;;;;;;6102827;23;20390;-84
2022/04/19 11:28:00;;;;;;;4.97;4.47;;;34.70;21.80;;;;;;6101236;23;20400;-84
2022/04/19 11:30:28;;;;;;;5.23;4.83;;;36.30;21.60;;;;;;6099756;23;20404;-85
2022/04/19 11:32:57;;;;;;;6.37;5.87;;;35.50;21.60;;;;;;6102338;23;20409;-84
2022/04/19 11:35:26;;;;;;;5.17;4.67;;;36.10;21.30;;;;;;6103578;23;20463;-85
2022/04/19 11:37:52;;;;;;;5.57;5.17;;;36.00;20.80;;;;;;6103236;23;20500;-86
2022/04/19 11:48:44;;;;;;;5.63;5.23;;;36.10;20.40;;;;;;6102551;23;20452;-86
2022/04/19 11:51:12;;;;;;;6.17;5.57;;;36.30;20.80;;;;;;6101090;23;20397;-85
2022/04/19 11:53:40;;;;;;;6.80;6.07;;;36.30;20.60;;;;;;6106486;23;20412;-85
2022/04/19 11:56:07;;;;;;;5.40;4.97;;;35.80;20.90;;;;;;6109987;23;20436;-85
2022/04/19 11:58:35;;;;;;;4.77;4.43;;;36.70;20.80;;;;;;6104869;23;20412;-84
2022/04/19 12:01:05;;;;;;;5.93;4.90;;;37.00;20.40;;;;;;6105357;23;20436;-85
2022/04/19 12:03:34;;;;;;;6.20;5.60;;;35.70;20.20;;;;;;6107024;23;20885;-84
2022/04/19 12:06:08;;;;;;;5.20;4.80;;;34.00;20.80;;;;;;6106352;23;20435;-84
2022/04/19 12:08:37;;;;;;;5.80;5.30;;;33.70;21.60;;;;;;6116286;23;20449;-84
2022/04/19 12:11:06;;;;;;;6.03;5.43;;;32.30;21.90;;;;;;6111146;23;20448;-84
2022/04/19 12:13:34;;;;;;;4.60;4.30;;;31.50;22.50;;;;;;6123378;23;20436;-85
2022/04/19 12:16:03;;;;;;;6.13;5.63;;;32.80;22.80;;;;;;6116253;23;20416;-86
2022/04/19 12:18:35;;;;;;;5.80;5.20;;;33.30;21.80;;;;;;6117530;23;20440;-85
2022/04/19 12:21:02;;;;;;;5.37;4.87;;;33.30;21.90;;;;;;6121383;23;20500;-85
2022/04/19 12:23:29;;;;;;;5.73;5.07;;;33.50;22.10;;;;;;6112238;23;20432;-86
2022/04/19 12:26:04;;;;;;;5.50;5.00;;;33.60;21.80;;;;;;6105128;23;20428;-85
2022/04/19 12:28:39;;;;;;;8.37;5.83;;;33.50;21.60;;;;;;6103302;23;20435;-85
2022/04/19 12:31:07;;;;;;;6.53;6.00;;;33.90;21.50;;;;;;6104568;23;20883;-85
2022/04/19 12:33:35;;;;;;;5.07;4.67;;;33.00;21.50;;;;;;6104292;23;20412;-85
2022/04/19 12:36:02;;;;;;;5.80;5.17;;;32.80;21.90;;;;;;6104679;23;20516;-86
2022/04/19 12:38:30;;;;;;;5.60;5.10;;;32.90;21.80;;;;;;6104866;23;20511;-85
2022/04/19 12:40:57;;;;;;;5.40;5.00;;;33.90;22.30;;;;;;6105854;23;20420;-81
2022/04/19 12:43:42;;;;;;;5.73;4.93;;;34.10;21.50;;;;;;6107158;23;20405;-83
2022/04/19 12:46:11;;;;;;;6.50;4.90;;;34.30;21.50;;;;;;6110793;23;20452;-83
2022/04/19 12:48:38;;;;;;;5.20;4.70;;;34.20;21.50;;;;;;6115611;23;20447;-82
2022/04/19 12:51:05;;;;;;;5.07;4.67;;;33.70;21.20;;;;;;6108563;23;20404;-83
2022/04/19 12:53:33;;;;;;;6.30;5.70;;;33.80;21.70;;;;;;6106749;23;20439;-83
2022/04/19 12:56:10;;;;;;;6.10;5.50;;;33.00;22.00;;;;;;6104058;23;20443;-82
2022/04/19 12:58:43;;;;;;;5.77;5.27;;;31.40;22.60;;;;;;6108867;23;20384;-85
2022/04/19 13:01:12;;;;;;;7.90;6.20;;;31.70;22.50;;;;;;6109946;23;20385;-85
2022/04/19 13:03:39;;;;;;;6.10;5.50;;;32.20;22.70;;;;;;6108720;23;20396;-84
2022/04/19 13:14:25;;;;;;;5.93;5.43;;;34.00;21.90;;;;;;6107836;23;20388;-86
2022/04/19 13:16:53;;;;;;;5.50;5.00;;;33.60;22.20;;;;;;6105740;23;20959;-85
2022/04/19 13:19:20;;;;;;;4.60;4.17;;;34.00;21.90;;;;;;6105499;23;20412;-85
2022/04/19 13:21:46;;;;;;;4.93;4.47;;;34.30;21.70;;;;;;6108114;23;20405;-83
2022/04/19 13:24:14;;;;;;;5.30;4.80;;;33.90;21.80;;;;;;6108382;23;20412;-84
2022/04/19 13:26:40;;;;;;;5.73;5.23;;;34.50;21.50;;;;;;6105024;23;20515;-83
2022/04/19 13:29:07;;;;;;;5.13;4.70;;;34.30;21.50;;;;;;6098668;23;20444;-83
2022/04/19 13:31:34;;;;;;;4.90;4.47;;;34.00;21.10;;;;;;6098154;23;20415;-83
2022/04/19 13:34:02;;;;;;;6.13;5.63;;;34.10;21.70;;;;;;6098908;23;20409;-83
2022/04/19 13:36:29;;;;;;;6.00;5.27;;;32.20;22.00;;;;;;6097650;23;20543;-84
2022/04/19 13:38:56;;;;;;;6.13;5.60;;;30.20;23.80;;;;;;6098320;23;20416;-83
2022/04/19 13:41:23;;;;;;;6.60;5.53;;;30.20;24.40;;;;;;6099076;23;20404;-82
2022/04/19 13:43:51;;;;;;;4.87;4.43;;;29.60;24.50;;;;;;6101395;23;20408;-82
2022/04/19 13:46:18;;;;;;;4.13;3.83;;;30.30;24.70;;;;;;6108263;23;20436;-82
2022/04/19 13:48:44;;;;;;;5.80;5.30;;;30.90;23.60;;;;;;6110670;23;20436;-82